sensor_id;sensor_type;location;lat;lon;timestamp;P1;durP1;ratioP1;P2;durP2;ratioP2
56911;SDS011;42800;53.928;27.662;2023-03-11T00:00:23;12.48;;;6.35;;
56911;SDS011;42800;53.928;27.662;2023-03-11T00:02:51;15.55;;;6.60;;
56911;SDS011;42800;53.928;27.662;2023-03-11T00:05:20;10.93;;;6.35;;
56911;SDS011;42800;53.928;27.662;2023-03-11T00:07:48;12.07;;;6.63;;
56911;SDS011;42800;53.928;27.662;2023-03-11T00:10:15;9.88;;;6.43;;
56911;SDS011;42800;53.928;27.662;2023-03-11T00:12:44;11.48;;;6.22;;
56911;SDS011;42800;53.928;27.662;2023-03-11T00:15:10;12.80;;;6.70;;
56911;SDS011;42800;53.928;27.662;2023-03-11T00:17:38;12.38;;;7.13;;
56911;SDS011;42800;53.928;27.662;2023-03-11T00:20:05;10.85;;;6.40;;
56911;SDS011;42800;53.928;27.662;2023-03-11T00:22:32;11.10;;;6.68;;
56911;SDS011;42800;53.928;27.662;2023-03-11T00:24:58;13.13;;;7.20;;
56911;SDS011;42800;53.928;27.662;2023-03-11T00:27:24;11.60;;;6.57;;
56911;SDS011;42800;53.928;27.662;2023-03-11T00:29:50;14.02;;;7.45;;
56911;SDS011;42800;53.928;27.662;2023-03-11T00:32:16;14.65;;;7.65;;
56911;SDS011;42800;53.928;27.662;2023-03-11T00:34:42;17.13;;;6.80;;
56911;SDS011;42800;53.928;27.662;2023-03-11T00:37:08;18.35;;;8.30;;
56911;SDS011;42800;53.928;27.662;2023-03-11T00:39:34;13.30;;;7.68;;
56911;SDS011;42800;53.928;27.662;2023-03-11T00:42:00;16.55;;;8.30;;
56911;SDS011;42800;53.928;27.662;2023-03-11T00:44:27;15.77;;;8.52;;
56911;SDS011;42800;53.928;27.662;2023-03-11T00:46:53;15.43;;;7.85;;
56911;SDS011;42800;53.928;27.662;2023-03-11T00:49:19;17.58;;;7.90;;
56911;SDS011;42800;53.928;27.662;2023-03-11T00:51:46;16.77;;;8.10;;
56911;SDS011;42800;53.928;27.662;2023-03-11T00:54:12;13.02;;;7.90;;
56911;SDS011;42800;53.928;27.662;2023-03-11T00:56:38;16.58;;;9.40;;
56911;SDS011;42800;53.928;27.662;2023-03-11T00:59:05;16.75;;;8.48;;
56911;SDS011;42800;53.928;27.662;2023-03-11T01:01:31;20.45;;;9.50;;
56911;SDS011;42800;53.928;27.662;2023-03-11T01:03:57;16.75;;;9.25;;
56911;SDS011;42800;53.928;27.662;2023-03-11T01:06:23;17.25;;;8.85;;
56911;SDS011;42800;53.928;27.662;2023-03-11T01:08:50;21.45;;;9.77;;
56911;SDS011;42800;53.928;27.662;2023-03-11T01:11:16;17.45;;;9.25;;
56911;SDS011;42800;53.928;27.662;2023-03-11T01:13:41;26.75;;;9.82;;
56911;SDS011;42800;53.928;27.662;2023-03-11T01:16:07;13.02;;;7.70;;
56911;SDS011;42800;53.928;27.662;2023-03-11T01:18:33;22.00;;;9.90;;
56911;SDS011;42800;53.928;27.662;2023-03-11T01:20:59;25.80;;;11.25;;
56911;SDS011;42800;53.928;27.662;2023-03-11T01:23:25;42.65;;;12.00;;
56911;SDS011;42800;53.928;27.662;2023-03-11T01:25:52;25.50;;;10.27;;
56911;SDS011;42800;53.928;27.662;2023-03-11T01:28:18;58.78;;;9.55;;
56911;SDS011;42800;53.928;27.662;2023-03-11T01:30:44;21.08;;;10.75;;
56911;SDS011;42800;53.928;27.662;2023-03-11T01:33:12;34.85;;;9.98;;
56911;SDS011;42800;53.928;27.662;2023-03-11T01:35:40;60.78;;;12.07;;
56911;SDS011;42800;53.928;27.662;2023-03-11T01:38:07;36.47;;;11.85;;
56911;SDS011;42800;53.928;27.662;2023-03-11T01:40:35;33.67;;;12.25;;
56911;SDS011;42800;53.928;27.662;2023-03-11T01:43:04;41.95;;;11.75;;
56911;SDS011;42800;53.928;27.662;2023-03-11T01:45:37;41.50;;;12.40;;
56911;SDS011;42800;53.928;27.662;2023-03-11T01:48:07;52.17;;;14.30;;
56911;SDS011;42800;53.928;27.662;2023-03-11T01:50:35;23.08;;;11.35;;
56911;SDS011;42800;53.928;27.662;2023-03-11T01:53:03;28.50;;;12.38;;
56911;SDS011;42800;53.928;27.662;2023-03-11T01:55:29;29.70;;;12.82;;
56911;SDS011;42800;53.928;27.662;2023-03-11T01:57:56;33.88;;;12.38;;
56911;SDS011;42800;53.928;27.662;2023-03-11T02:00:24;31.38;;;12.63;;
56911;SDS011;42800;53.928;27.662;2023-03-11T02:02:51;32.25;;;12.45;;
56911;SDS011;42800;53.928;27.662;2023-03-11T02:05:19;31.65;;;12.15;;
56911;SDS011;42800;53.928;27.662;2023-03-11T02:07:46;32.08;;;12.77;;
56911;SDS011;42800;53.928;27.662;2023-03-11T02:10:15;34.20;;;11.68;;
56911;SDS011;42800;53.928;27.662;2023-03-11T02:12:42;31.05;;;12.95;;
56911;SDS011;42800;53.928;27.662;2023-03-11T02:15:10;58.38;;;13.30;;
56911;SDS011;42800;53.928;27.662;2023-03-11T02:17:37;37.15;;;13.95;;
56911;SDS011;42800;53.928;27.662;2023-03-11T02:20:12;32.47;;;13.30;;
56911;SDS011;42800;53.928;27.662;2023-03-11T02:22:44;35.65;;;14.18;;
56911;SDS011;42800;53.928;27.662;2023-03-11T02:25:15;50.90;;;13.93;;
56911;SDS011;42800;53.928;27.662;2023-03-11T02:27:51;46.08;;;12.38;;
56911;SDS011;42800;53.928;27.662;2023-03-11T02:30:18;47.35;;;14.32;;
56911;SDS011;42800;53.928;27.662;2023-03-11T02:32:46;57.45;;;12.88;;
56911;SDS011;42800;53.928;27.662;2023-03-11T02:35:14;36.20;;;15.30;;
56911;SDS011;42800;53.928;27.662;2023-03-11T02:37:45;58.70;;;14.18;;
56911;SDS011;42800;53.928;27.662;2023-03-11T02:43:02;41.03;;;15.20;;
56911;SDS011;42800;53.928;27.662;2023-03-11T02:45:31;64.68;;;13.90;;
56911;SDS011;42800;53.928;27.662;2023-03-11T02:47:58;58.65;;;15.68;;
56911;SDS011;42800;53.928;27.662;2023-03-11T02:50:25;33.70;;;14.40;;
56911;SDS011;42800;53.928;27.662;2023-03-11T02:52:53;55.65;;;14.35;;
56911;SDS011;42800;53.928;27.662;2023-03-11T02:55:19;38.33;;;14.15;;
56911;SDS011;42800;53.928;27.662;2023-03-11T02:57:45;35.83;;;14.48;;
56911;SDS011;42800;53.928;27.662;2023-03-11T03:00:13;44.85;;;14.40;;
56911;SDS011;42800;53.928;27.662;2023-03-11T03:02:42;107.15;;;15.68;;
56911;SDS011;42800;53.928;27.662;2023-03-11T03:05:10;33.53;;;14.00;;
56911;SDS011;42800;53.928;27.662;2023-03-11T03:07:36;29.33;;;13.98;;
56911;SDS011;42800;53.928;27.662;2023-03-11T03:10:03;44.78;;;14.82;;
56911;SDS011;42800;53.928;27.662;2023-03-11T03:12:30;65.00;;;13.73;;
56911;SDS011;42800;53.928;27.662;2023-03-11T03:14:56;45.13;;;14.82;;
56911;SDS011;42800;53.928;27.662;2023-03-11T03:17:23;57.70;;;13.80;;
56911;SDS011;42800;53.928;27.662;2023-03-11T03:19:49;42.08;;;14.52;;
56911;SDS011;42800;53.928;27.662;2023-03-11T03:22:14;47.03;;;14.88;;
56911;SDS011;42800;53.928;27.662;2023-03-11T03:24:40;67.03;;;15.15;;
56911;SDS011;42800;53.928;27.662;2023-03-11T03:27:06;72.93;;;14.70;;
56911;SDS011;42800;53.928;27.662;2023-03-11T03:29:32;45.70;;;13.85;;
56911;SDS011;42800;53.928;27.662;2023-03-11T03:31:58;87.00;;;15.70;;
56911;SDS011;42800;53.928;27.662;2023-03-11T03:34:25;56.53;;;15.23;;
56911;SDS011;42800;53.928;27.662;2023-03-11T03:36:51;49.20;;;15.10;;
56911;SDS011;42800;53.928;27.662;2023-03-11T03:39:17;57.58;;;14.05;;
56911;SDS011;42800;53.928;27.662;2023-03-11T03:41:43;67.20;;;17.27;;
56911;SDS011;42800;53.928;27.662;2023-03-11T03:44:10;59.95;;;15.77;;
56911;SDS011;42800;53.928;27.662;2023-03-11T03:46:36;52.35;;;15.05;;
56911;SDS011;42800;53.928;27.662;2023-03-11T03:49:02;38.05;;;15.35;;
56911;SDS011;42800;53.928;27.662;2023-03-11T03:51:29;69.53;;;14.35;;
56911;SDS011;42800;53.928;27.662;2023-03-11T03:53:55;58.22;;;15.05;;
56911;SDS011;42800;53.928;27.662;2023-03-11T03:56:20;59.72;;;15.63;;
56911;SDS011;42800;53.928;27.662;2023-03-11T03:58:46;49.63;;;14.50;;
56911;SDS011;42800;53.928;27.662;2023-03-11T04:01:12;113.95;;;17.00;;
56911;SDS011;42800;53.928;27.662;2023-03-11T04:03:38;57.08;;;14.70;;
56911;SDS011;42800;53.928;27.662;2023-03-11T04:06:05;47.05;;;13.82;;
56911;SDS011;42800;53.928;27.662;2023-03-11T04:08:32;109.85;;;14.68;;
56911;SDS011;42800;53.928;27.662;2023-03-11T04:10:58;54.35;;;15.95;;
56911;SDS011;42800;53.928;27.662;2023-03-11T04:13:24;124.55;;;16.25;;
56911;SDS011;42800;53.928;27.662;2023-03-11T04:15:50;72.53;;;16.70;;
56911;SDS011;42800;53.928;27.662;2023-03-11T04:18:16;134.85;;;16.83;;
56911;SDS011;42800;53.928;27.662;2023-03-11T04:20:43;88.03;;;15.73;;
56911;SDS011;42800;53.928;27.662;2023-03-11T04:23:09;100.32;;;16.52;;
56911;SDS011;42800;53.928;27.662;2023-03-11T04:25:35;114.40;;;16.58;;
56911;SDS011;42800;53.928;27.662;2023-03-11T04:28:01;110.40;;;17.15;;
56911;SDS011;42800;53.928;27.662;2023-03-11T04:30:27;50.10;;;14.95;;
56911;SDS011;42800;53.928;27.662;2023-03-11T04:32:53;47.72;;;16.10;;
56911;SDS011;42800;53.928;27.662;2023-03-11T04:35:19;51.20;;;14.55;;
56911;SDS011;42800;53.928;27.662;2023-03-11T04:37:45;47.50;;;14.20;;
56911;SDS011;42800;53.928;27.662;2023-03-11T04:40:11;69.50;;;14.40;;
56911;SDS011;42800;53.928;27.662;2023-03-11T04:42:38;64.03;;;14.02;;
56911;SDS011;42800;53.928;27.662;2023-03-11T04:45:05;64.03;;;15.88;;
56911;SDS011;42800;53.928;27.662;2023-03-11T04:47:31;40.45;;;15.07;;
56911;SDS011;42800;53.928;27.662;2023-03-11T04:49:57;30.05;;;13.00;;
56911;SDS011;42800;53.928;27.662;2023-03-11T04:52:23;48.25;;;13.80;;
56911;SDS011;42800;53.928;27.662;2023-03-11T04:54:49;55.65;;;14.70;;
56911;SDS011;42800;53.928;27.662;2023-03-11T04:57:15;36.97;;;15.02;;
56911;SDS011;42800;53.928;27.662;2023-03-11T04:59:42;40.33;;;15.32;;
56911;SDS011;42800;53.928;27.662;2023-03-11T05:02:08;32.28;;;14.35;;
56911;SDS011;42800;53.928;27.662;2023-03-11T05:04:33;55.15;;;16.90;;
56911;SDS011;42800;53.928;27.662;2023-03-11T05:06:59;54.72;;;17.38;;
56911;SDS011;42800;53.928;27.662;2023-03-11T05:09:25;50.85;;;16.73;;
56911;SDS011;42800;53.928;27.662;2023-03-11T05:11:51;51.95;;;17.38;;
56911;SDS011;42800;53.928;27.662;2023-03-11T05:14:17;50.63;;;17.55;;
56911;SDS011;42800;53.928;27.662;2023-03-11T05:16:44;46.13;;;17.35;;
56911;SDS011;42800;53.928;27.662;2023-03-11T05:19:10;41.95;;;16.70;;
56911;SDS011;42800;53.928;27.662;2023-03-11T05:21:51;36.90;;;15.13;;
56911;SDS011;42800;53.928;27.662;2023-03-11T05:24:17;35.92;;;16.10;;
56911;SDS011;42800;53.928;27.662;2023-03-11T05:26:43;43.13;;;15.95;;
56911;SDS011;42800;53.928;27.662;2023-03-11T05:29:09;42.85;;;16.90;;
56911;SDS011;42800;53.928;27.662;2023-03-11T05:31:35;106.13;;;23.52;;
56911;SDS011;42800;53.928;27.662;2023-03-11T05:34:01;127.55;;;28.88;;
56911;SDS011;42800;53.928;27.662;2023-03-11T05:36:27;37.47;;;16.27;;
56911;SDS011;42800;53.928;27.662;2023-03-11T05:38:53;47.22;;;17.35;;
56911;SDS011;42800;53.928;27.662;2023-03-11T05:41:19;45.65;;;18.10;;
56911;SDS011;42800;53.928;27.662;2023-03-11T05:43:45;44.22;;;19.08;;
56911;SDS011;42800;53.928;27.662;2023-03-11T05:46:11;40.70;;;18.25;;
56911;SDS011;42800;53.928;27.662;2023-03-11T05:48:37;36.47;;;16.30;;
56911;SDS011;42800;53.928;27.662;2023-03-11T05:51:05;27.80;;;11.98;;
56911;SDS011;42800;53.928;27.662;2023-03-11T05:53:32;32.47;;;15.20;;
56911;SDS011;42800;53.928;27.662;2023-03-11T05:55:59;35.17;;;15.82;;
56911;SDS011;42800;53.928;27.662;2023-03-11T05:58:25;24.60;;;13.48;;
56911;SDS011;42800;53.928;27.662;2023-03-11T06:00:52;26.83;;;13.10;;
56911;SDS011;42800;53.928;27.662;2023-03-11T06:03:18;38.45;;;16.85;;
56911;SDS011;42800;53.928;27.662;2023-03-11T06:05:44;34.50;;;16.25;;
56911;SDS011;42800;53.928;27.662;2023-03-11T06:08:11;47.10;;;19.60;;
56911;SDS011;42800;53.928;27.662;2023-03-11T06:10:37;33.67;;;15.68;;
56911;SDS011;42800;53.928;27.662;2023-03-11T06:13:03;33.83;;;16.38;;
56911;SDS011;42800;53.928;27.662;2023-03-11T06:15:29;32.63;;;15.02;;
56911;SDS011;42800;53.928;27.662;2023-03-11T06:17:55;32.40;;;14.65;;
56911;SDS011;42800;53.928;27.662;2023-03-11T06:20:21;32.95;;;15.95;;
56911;SDS011;42800;53.928;27.662;2023-03-11T06:22:47;35.95;;;16.55;;
56911;SDS011;42800;53.928;27.662;2023-03-11T06:25:14;32.90;;;16.77;;
56911;SDS011;42800;53.928;27.662;2023-03-11T06:27:40;34.05;;;15.77;;
56911;SDS011;42800;53.928;27.662;2023-03-11T06:30:06;31.35;;;15.07;;
56911;SDS011;42800;53.928;27.662;2023-03-11T06:32:33;30.50;;;14.73;;
56911;SDS011;42800;53.928;27.662;2023-03-11T06:34:59;27.55;;;14.10;;
56911;SDS011;42800;53.928;27.662;2023-03-11T06:37:25;29.83;;;14.25;;
56911;SDS011;42800;53.928;27.662;2023-03-11T06:39:52;25.52;;;13.85;;
56911;SDS011;42800;53.928;27.662;2023-03-11T06:42:18;30.73;;;14.23;;
56911;SDS011;42800;53.928;27.662;2023-03-11T06:44:48;27.13;;;13.93;;
56911;SDS011;42800;53.928;27.662;2023-03-11T06:47:16;27.95;;;13.80;;
56911;SDS011;42800;53.928;27.662;2023-03-11T06:49:44;22.15;;;11.82;;
56911;SDS011;42800;53.928;27.662;2023-03-11T06:52:11;25.05;;;12.80;;
56911;SDS011;42800;53.928;27.662;2023-03-11T06:54:41;28.85;;;14.65;;
56911;SDS011;42800;53.928;27.662;2023-03-11T06:57:09;30.60;;;14.05;;
56911;SDS011;42800;53.928;27.662;2023-03-11T06:59:38;25.13;;;12.48;;
56911;SDS011;42800;53.928;27.662;2023-03-11T07:02:04;34.70;;;14.40;;
56911;SDS011;42800;53.928;27.662;2023-03-11T07:04:31;28.48;;;14.13;;
56911;SDS011;42800;53.928;27.662;2023-03-11T07:07:06;31.63;;;14.25;;
56911;SDS011;42800;53.928;27.662;2023-03-11T07:09:33;29.92;;;14.15;;
56911;SDS011;42800;53.928;27.662;2023-03-11T07:12:00;31.27;;;15.32;;
56911;SDS011;42800;53.928;27.662;2023-03-11T07:14:27;27.73;;;14.45;;
56911;SDS011;42800;53.928;27.662;2023-03-11T07:16:54;32.75;;;13.63;;
56911;SDS011;42800;53.928;27.662;2023-03-11T07:19:26;24.35;;;11.95;;
56911;SDS011;42800;53.928;27.662;2023-03-11T07:21:57;28.25;;;14.18;;
56911;SDS011;42800;53.928;27.662;2023-03-11T07:24:27;28.00;;;14.65;;
56911;SDS011;42800;53.928;27.662;2023-03-11T07:26:55;23.45;;;12.93;;
56911;SDS011;42800;53.928;27.662;2023-03-11T07:29:23;26.40;;;12.57;;
56911;SDS011;42800;53.928;27.662;2023-03-11T07:31:52;33.58;;;13.07;;
56911;SDS011;42800;53.928;27.662;2023-03-11T07:34:21;23.02;;;12.55;;
56911;SDS011;42800;53.928;27.662;2023-03-11T07:36:47;26.15;;;11.43;;
56911;SDS011;42800;53.928;27.662;2023-03-11T07:39:18;24.48;;;13.55;;
56911;SDS011;42800;53.928;27.662;2023-03-11T07:41:44;32.28;;;14.52;;
56911;SDS011;42800;53.928;27.662;2023-03-11T07:44:11;29.38;;;13.23;;
56911;SDS011;42800;53.928;27.662;2023-03-11T07:46:40;24.02;;;11.95;;
56911;SDS011;42800;53.928;27.662;2023-03-11T07:49:07;19.67;;;11.27;;
56911;SDS011;42800;53.928;27.662;2023-03-11T07:51:34;25.15;;;12.35;;
56911;SDS011;42800;53.928;27.662;2023-03-11T07:54:01;27.63;;;13.07;;
56911;SDS011;42800;53.928;27.662;2023-03-11T07:56:28;24.75;;;11.30;;
56911;SDS011;42800;53.928;27.662;2023-03-11T07:58:56;25.25;;;12.02;;
56911;SDS011;42800;53.928;27.662;2023-03-11T08:01:23;22.40;;;12.23;;
56911;SDS011;42800;53.928;27.662;2023-03-11T08:03:51;20.58;;;11.15;;
56911;SDS011;42800;53.928;27.662;2023-03-11T08:06:22;19.52;;;11.10;;
56911;SDS011;42800;53.928;27.662;2023-03-11T08:08:49;14.45;;;8.23;;
56911;SDS011;42800;53.928;27.662;2023-03-11T08:11:16;17.73;;;10.57;;
56911;SDS011;42800;53.928;27.662;2023-03-11T08:13:45;23.42;;;11.43;;
56911;SDS011;42800;53.928;27.662;2023-03-11T08:16:12;22.13;;;10.80;;
56911;SDS011;42800;53.928;27.662;2023-03-11T08:18:40;23.60;;;11.25;;
56911;SDS011;42800;53.928;27.662;2023-03-11T08:21:09;18.50;;;11.30;;
56911;SDS011;42800;53.928;27.662;2023-03-11T08:23:37;27.63;;;11.57;;
56911;SDS011;42800;53.928;27.662;2023-03-11T08:26:04;20.77;;;11.18;;
56911;SDS011;42800;53.928;27.662;2023-03-11T08:28:30;19.67;;;10.43;;
56911;SDS011;42800;53.928;27.662;2023-03-11T08:30:57;17.55;;;10.13;;
56911;SDS011;42800;53.928;27.662;2023-03-11T08:33:23;19.48;;;10.43;;
56911;SDS011;42800;53.928;27.662;2023-03-11T08:35:51;20.48;;;10.68;;
56911;SDS011;42800;53.928;27.662;2023-03-11T08:38:18;20.05;;;11.45;;
56911;SDS011;42800;53.928;27.662;2023-03-11T08:40:44;20.17;;;11.82;;
56911;SDS011;42800;53.928;27.662;2023-03-11T08:43:11;18.75;;;11.88;;
56911;SDS011;42800;53.928;27.662;2023-03-11T08:45:38;18.05;;;11.30;;
56911;SDS011;42800;53.928;27.662;2023-03-11T08:48:04;21.05;;;11.00;;
56911;SDS011;42800;53.928;27.662;2023-03-11T08:50:31;23.20;;;10.38;;
56911;SDS011;42800;53.928;27.662;2023-03-11T08:52:57;23.05;;;11.90;;
56911;SDS011;42800;53.928;27.662;2023-03-11T08:55:27;22.30;;;10.63;;
56911;SDS011;42800;53.928;27.662;2023-03-11T08:57:55;18.90;;;9.85;;
56911;SDS011;42800;53.928;27.662;2023-03-11T09:00:22;18.88;;;10.88;;
56911;SDS011;42800;53.928;27.662;2023-03-11T09:02:48;15.45;;;8.75;;
56911;SDS011;42800;53.928;27.662;2023-03-11T09:05:14;16.83;;;10.07;;
56911;SDS011;42800;53.928;27.662;2023-03-11T09:07:41;17.50;;;9.75;;
56911;SDS011;42800;53.928;27.662;2023-03-11T09:10:07;21.80;;;11.10;;
56911;SDS011;42800;53.928;27.662;2023-03-11T09:12:35;21.77;;;11.25;;
56911;SDS011;42800;53.928;27.662;2023-03-11T09:15:02;26.75;;;10.88;;
56911;SDS011;42800;53.928;27.662;2023-03-11T09:17:28;14.23;;;8.82;;
56911;SDS011;42800;53.928;27.662;2023-03-11T09:19:54;14.82;;;9.50;;
56911;SDS011;42800;53.928;27.662;2023-03-11T09:22:21;19.58;;;8.95;;
56911;SDS011;42800;53.928;27.662;2023-03-11T09:24:49;15.30;;;8.30;;
56911;SDS011;42800;53.928;27.662;2023-03-11T09:27:15;13.73;;;7.70;;
56911;SDS011;42800;53.928;27.662;2023-03-11T09:29:41;14.25;;;8.95;;
56911;SDS011;42800;53.928;27.662;2023-03-11T09:32:08;13.52;;;7.78;;
56911;SDS011;42800;53.928;27.662;2023-03-11T09:34:36;18.55;;;8.20;;
56911;SDS011;42800;53.928;27.662;2023-03-11T09:37:02;19.17;;;8.77;;
56911;SDS011;42800;53.928;27.662;2023-03-11T09:39:28;17.00;;;7.97;;
56911;SDS011;42800;53.928;27.662;2023-03-11T09:41:55;15.10;;;8.88;;
56911;SDS011;42800;53.928;27.662;2023-03-11T09:44:23;15.32;;;8.65;;
56911;SDS011;42800;53.928;27.662;2023-03-11T09:55:43;14.30;;;7.82;;
56911;SDS011;42800;53.928;27.662;2023-03-11T09:58:12;15.82;;;8.05;;
56911;SDS011;42800;53.928;27.662;2023-03-11T10:00:42;13.50;;;7.60;;
56911;SDS011;42800;53.928;27.662;2023-03-11T10:03:13;14.82;;;8.38;;
56911;SDS011;42800;53.928;27.662;2023-03-11T10:05:49;16.98;;;8.43;;
56911;SDS011;42800;53.928;27.662;2023-03-11T10:08:18;14.73;;;7.35;;
56911;SDS011;42800;53.928;27.662;2023-03-11T10:10:51;13.68;;;7.38;;
56911;SDS011;42800;53.928;27.662;2023-03-11T10:13:24;16.60;;;7.37;;
56911;SDS011;42800;53.928;27.662;2023-03-11T10:15:57;12.73;;;7.53;;
56911;SDS011;42800;53.928;27.662;2023-03-11T10:21:02;11.80;;;7.53;;
56911;SDS011;42800;53.928;27.662;2023-03-11T10:23:39;12.98;;;7.45;;
56911;SDS011;42800;53.928;27.662;2023-03-11T10:26:22;15.65;;;7.28;;
56911;SDS011;42800;53.928;27.662;2023-03-11T10:31:26;13.52;;;7.22;;
56911;SDS011;42800;53.928;27.662;2023-03-11T10:33:57;12.57;;;7.45;;
56911;SDS011;42800;53.928;27.662;2023-03-11T10:36:28;11.35;;;6.55;;
56911;SDS011;42800;53.928;27.662;2023-03-11T10:39:00;15.38;;;7.63;;
56911;SDS011;42800;53.928;27.662;2023-03-11T10:41:27;12.88;;;7.18;;
56911;SDS011;42800;53.928;27.662;2023-03-11T10:43:59;13.70;;;7.47;;
56911;SDS011;42800;53.928;27.662;2023-03-11T10:46:31;13.50;;;7.93;;
56911;SDS011;42800;53.928;27.662;2023-03-11T10:48:58;13.55;;;7.00;;
56911;SDS011;42800;53.928;27.662;2023-03-11T10:51:24;17.60;;;7.35;;
56911;SDS011;42800;53.928;27.662;2023-03-11T10:53:56;14.50;;;7.40;;
56911;SDS011;42800;53.928;27.662;2023-03-11T10:56:25;13.68;;;7.50;;
56911;SDS011;42800;53.928;27.662;2023-03-11T10:58:53;15.23;;;8.00;;
56911;SDS011;42800;53.928;27.662;2023-03-11T11:01:19;13.75;;;7.53;;
56911;SDS011;42800;53.928;27.662;2023-03-11T11:03:46;15.50;;;7.78;;
56911;SDS011;42800;53.928;27.662;2023-03-11T11:06:22;12.25;;;6.90;;
56911;SDS011;42800;53.928;27.662;2023-03-11T11:09:03;19.60;;;8.20;;
56911;SDS011;42800;53.928;27.662;2023-03-11T11:11:34;12.50;;;7.15;;
56911;SDS011;42800;53.928;27.662;2023-03-11T11:14:03;14.25;;;7.63;;
56911;SDS011;42800;53.928;27.662;2023-03-11T11:16:33;14.20;;;8.05;;
56911;SDS011;42800;53.928;27.662;2023-03-11T11:19:01;14.07;;;7.68;;
56911;SDS011;42800;53.928;27.662;2023-03-11T11:21:30;13.18;;;7.32;;
56911;SDS011;42800;53.928;27.662;2023-03-11T11:24:02;15.30;;;7.55;;
56911;SDS011;42800;53.928;27.662;2023-03-11T11:26:34;12.05;;;6.88;;
56911;SDS011;42800;53.928;27.662;2023-03-11T11:29:10;9.98;;;6.68;;
56911;SDS011;42800;53.928;27.662;2023-03-11T11:31:43;12.68;;;7.40;;
56911;SDS011;42800;53.928;27.662;2023-03-11T11:34:27;12.77;;;7.18;;
56911;SDS011;42800;53.928;27.662;2023-03-11T11:36:57;11.77;;;6.97;;
56911;SDS011;42800;53.928;27.662;2023-03-11T11:39:25;14.80;;;8.27;;
56911;SDS011;42800;53.928;27.662;2023-03-11T11:41:53;15.88;;;7.50;;
56911;SDS011;42800;53.928;27.662;2023-03-11T11:44:20;18.38;;;8.40;;
56911;SDS011;42800;53.928;27.662;2023-03-11T11:46:51;20.20;;;9.32;;
56911;SDS011;42800;53.928;27.662;2023-03-11T11:49:28;12.02;;;7.40;;
56911;SDS011;42800;53.928;27.662;2023-03-11T11:52:01;18.95;;;9.30;;
56911;SDS011;42800;53.928;27.662;2023-03-11T11:54:39;18.13;;;10.50;;
56911;SDS011;42800;53.928;27.662;2023-03-11T11:57:11;16.38;;;9.77;;
56911;SDS011;42800;53.928;27.662;2023-03-11T11:59:39;13.75;;;9.48;;
56911;SDS011;42800;53.928;27.662;2023-03-11T12:02:12;15.18;;;10.00;;
56911;SDS011;42800;53.928;27.662;2023-03-11T12:04:50;15.70;;;9.25;;
56911;SDS011;42800;53.928;27.662;2023-03-11T12:07:40;15.98;;;9.77;;
56911;SDS011;42800;53.928;27.662;2023-03-11T12:10:21;17.88;;;10.07;;
56911;SDS011;42800;53.928;27.662;2023-03-11T12:15:56;33.67;;;10.68;;
56911;SDS011;42800;53.928;27.662;2023-03-11T12:18:28;23.98;;;11.82;;
56911;SDS011;42800;53.928;27.662;2023-03-11T12:21:00;29.50;;;11.75;;
56911;SDS011;42800;53.928;27.662;2023-03-11T12:23:48;22.67;;;11.52;;
56911;SDS011;42800;53.928;27.662;2023-03-11T12:26:26;20.80;;;11.20;;
56911;SDS011;42800;53.928;27.662;2023-03-11T12:29:01;22.25;;;11.10;;
56911;SDS011;42800;53.928;27.662;2023-03-11T12:31:29;23.48;;;11.57;;
56911;SDS011;42800;53.928;27.662;2023-03-11T12:34:03;17.88;;;9.90;;
56911;SDS011;42800;53.928;27.662;2023-03-11T12:36:34;23.20;;;12.55;;
56911;SDS011;42800;53.928;27.662;2023-03-11T12:39:03;26.65;;;12.30;;
56911;SDS011;42800;53.928;27.662;2023-03-11T12:41:34;15.38;;;9.35;;
56911;SDS011;42800;53.928;27.662;2023-03-11T12:49:43;21.83;;;10.77;;
56911;SDS011;42800;53.928;27.662;2023-03-11T12:52:18;23.08;;;9.95;;
56911;SDS011;42800;53.928;27.662;2023-03-11T12:55:21;18.90;;;8.82;;
56911;SDS011;42800;53.928;27.662;2023-03-11T13:04:18;37.65;;;12.32;;
56911;SDS011;42800;53.928;27.662;2023-03-11T13:06:59;24.80;;;11.60;;
56911;SDS011;42800;53.928;27.662;2023-03-11T13:09:43;21.70;;;11.15;;
56911;SDS011;42800;53.928;27.662;2023-03-11T13:12:37;31.45;;;13.95;;
56911;SDS011;42800;53.928;27.662;2023-03-11T13:17:59;23.65;;;10.55;;
56911;SDS011;42800;53.928;27.662;2023-03-11T13:20:45;60.95;;;14.82;;
56911;SDS011;42800;53.928;27.662;2023-03-11T13:23:27;76.93;;;16.40;;
56911;SDS011;42800;53.928;27.662;2023-03-11T13:31:52;62.85;;;14.23;;
56911;SDS011;42800;53.928;27.662;2023-03-11T13:34:27;35.17;;;14.23;;
56911;SDS011;42800;53.928;27.662;2023-03-11T13:37:06;98.85;;;19.83;;
56911;SDS011;42800;53.928;27.662;2023-03-11T13:39:43;73.47;;;15.70;;
56911;SDS011;42800;53.928;27.662;2023-03-11T13:42:20;56.58;;;17.42;;
56911;SDS011;42800;53.928;27.662;2023-03-11T13:44:53;61.90;;;15.88;;
56911;SDS011;42800;53.928;27.662;2023-03-11T13:47:19;53.50;;;17.85;;
56911;SDS011;42800;53.928;27.662;2023-03-11T13:49:49;67.18;;;18.83;;
56911;SDS011;42800;53.928;27.662;2023-03-11T13:52:21;47.47;;;16.05;;
56911;SDS011;42800;53.928;27.662;2023-03-11T13:54:51;53.42;;;16.95;;
56911;SDS011;42800;53.928;27.662;2023-03-11T13:57:23;60.50;;;17.98;;
56911;SDS011;42800;53.928;27.662;2023-03-11T13:59:51;56.05;;;18.15;;
56911;SDS011;42800;53.928;27.662;2023-03-11T14:02:20;84.35;;;21.40;;
56911;SDS011;42800;53.928;27.662;2023-03-11T14:04:49;56.90;;;17.80;;
56911;SDS011;42800;53.928;27.662;2023-03-11T14:07:19;44.63;;;17.92;;
56911;SDS011;42800;53.928;27.662;2023-03-11T14:09:49;45.08;;;18.27;;
56911;SDS011;42800;53.928;27.662;2023-03-11T14:12:15;64.82;;;20.42;;
56911;SDS011;42800;53.928;27.662;2023-03-11T14:14:43;53.85;;;19.25;;
56911;SDS011;42800;53.928;27.662;2023-03-11T14:17:14;44.25;;;19.40;;
56911;SDS011;42800;53.928;27.662;2023-03-11T14:19:42;38.10;;;18.10;;
56911;SDS011;42800;53.928;27.662;2023-03-11T14:22:08;48.45;;;19.25;;
56911;SDS011;42800;53.928;27.662;2023-03-11T14:24:35;38.72;;;21.15;;
56911;SDS011;42800;53.928;27.662;2023-03-11T14:27:02;52.80;;;22.40;;
56911;SDS011;42800;53.928;27.662;2023-03-11T14:29:33;62.97;;;24.83;;
56911;SDS011;42800;53.928;27.662;2023-03-11T14:32:14;85.30;;;38.60;;
56911;SDS011;42800;53.928;27.662;2023-03-11T14:34:42;130.90;;;30.25;;
56911;SDS011;42800;53.928;27.662;2023-03-11T14:37:14;94.55;;;25.58;;
56911;SDS011;42800;53.928;27.662;2023-03-11T14:39:48;76.45;;;29.67;;
56911;SDS011;42800;53.928;27.662;2023-03-11T14:42:16;83.43;;;27.85;;
56911;SDS011;42800;53.928;27.662;2023-03-11T14:44:48;77.38;;;23.38;;
56911;SDS011;42800;53.928;27.662;2023-03-11T14:47:23;95.95;;;24.55;;
56911;SDS011;42800;53.928;27.662;2023-03-11T14:49:56;86.97;;;25.77;;
56911;SDS011;42800;53.928;27.662;2023-03-11T14:52:25;97.80;;;24.02;;
56911;SDS011;42800;53.928;27.662;2023-03-11T14:54:57;73.20;;;21.60;;
56911;SDS011;42800;53.928;27.662;2023-03-11T14:57:31;62.20;;;21.98;;
56911;SDS011;42800;53.928;27.662;2023-03-11T15:00:02;65.30;;;26.02;;
56911;SDS011;42800;53.928;27.662;2023-03-11T15:02:36;72.05;;;21.50;;